sensor_id;sensor_type;location;lat;lon;timestamp;pressure;altitude;pressure_sealevel;temperature;humidity
64853;BME280;56050;55.558;-4.644;2024-03-02T00:01:20;99360.50;;;5.93;60.36
64853;BME280;56050;55.558;-4.644;2024-03-02T00:03:46;99365.09;;;5.92;60.19
64853;BME280;56050;55.558;-4.644;2024-03-02T00:06:11;99365.84;;;5.93;60.23
64853;BME280;56050;55.558;-4.644;2024-03-02T00:08:37;99376.13;;;5.94;60.38
64853;BME280;56050;55.558;-4.644;2024-03-02T00:11:03;99369.66;;;5.95;60.32
64853;BME280;56050;55.558;-4.644;2024-03-02T00:13:29;99373.81;;;6.00;60.18
64853;BME280;56050;55.558;-4.644;2024-03-02T00:15:58;99373.81;;;6.00;60.25
64853;BME280;56050;55.558;-4.644;2024-03-02T00:18:30;99372.69;;;6.01;60.05
64853;BME280;56050;55.558;-4.644;2024-03-02T00:20:56;99375.38;;;6.01;60.24
64853;BME280;56050;55.558;-4.644;2024-03-02T00:23:23;99372.28;;;6.02;60.01
64853;BME280;56050;55.558;-4.644;2024-03-02T00:25:51;99373.06;;;6.03;60.29
64853;BME280;56050;55.558;-4.644;2024-03-02T00:28:34;99368.09;;;6.05;60.13
64853;BME280;56050;55.558;-4.644;2024-03-02T00:31:06;99373.44;;;6.05;60.01
64853;BME280;56050;55.558;-4.644;2024-03-02T00:33:46;99366.56;;;6.04;60.04
64853;BME280;56050;55.558;-4.644;2024-03-02T00:36:16;99371.16;;;6.03;60.01
64853;BME280;56050;55.558;-4.644;2024-03-02T00:38:51;99366.16;;;6.05;60.18
64853;BME280;56050;55.558;-4.644;2024-03-02T00:41:31;99372.28;;;6.06;60.28
64853;BME280;56050;55.558;-4.644;2024-03-02T00:46:21;99371.88;;;6.11;60.04
64853;BME280;56050;55.558;-4.644;2024-03-02T00:48:55;99378.38;;;6.10;60.00
64853;BME280;56050;55.558;-4.644;2024-03-02T00:51:22;99370.75;;;6.08;60.15
64853;BME280;56050;55.558;-4.644;2024-03-02T00:53:49;99370.78;;;6.05;60.00
64853;BME280;56050;55.558;-4.644;2024-03-02T00:56:15;99367.72;;;6.03;60.00
64853;BME280;56050;55.558;-4.644;2024-03-02T00:58:40;99373.44;;;6.05;60.32
64853;BME280;56050;55.558;-4.644;2024-03-02T01:01:06;99367.34;;;6.04;60.09
64853;BME280;56050;55.558;-4.644;2024-03-02T01:03:33;99374.59;;;6.04;60.16
64853;BME280;56050;55.558;-4.644;2024-03-02T01:05:59;99373.81;;;6.03;60.12
64853;BME280;56050;55.558;-4.644;2024-03-02T01:08:24;99374.59;;;6.04;60.16
64853;BME280;56050;55.558;-4.644;2024-03-02T01:10:49;99376.13;;;6.01;60.00
64853;BME280;56050;55.558;-4.644;2024-03-02T01:13:15;99373.47;;;5.98;60.07
64853;BME280;56050;55.558;-4.644;2024-03-02T01:15:41;99366.97;;;5.95;60.31
64853;BME280;56050;55.558;-4.644;2024-03-02T01:18:06;99365.84;;;5.96;60.17
64853;BME280;56050;55.558;-4.644;2024-03-02T01:20:31;99371.19;;;5.96;60.02
64853;BME280;56050;55.558;-4.644;2024-03-02T01:22:57;99368.13;;;5.94;60.12
64853;BME280;56050;55.558;-4.644;2024-03-02T01:25:23;99357.47;;;5.90;60.14
64853;BME280;56050;55.558;-4.644;2024-03-02T01:27:48;99362.81;;;5.87;59.93
64853;BME280;56050;55.558;-4.644;2024-03-02T01:30:14;99352.09;;;5.83;60.14
64853;BME280;56050;55.558;-4.644;2024-03-02T01:32:39;99361.28;;;5.82;60.32
64853;BME280;56050;55.558;-4.644;2024-03-02T01:35:05;99352.09;;;5.83;60.41
64853;BME280;56050;55.558;-4.644;2024-03-02T01:37:32;99363.19;;;5.85;60.22
64853;BME280;56050;55.558;-4.644;2024-03-02T01:39:57;99355.56;;;5.87;60.41
64853;BME280;56050;55.558;-4.644;2024-03-02T01:42:24;99355.56;;;5.87;60.30
64853;BME280;56050;55.558;-4.644;2024-03-02T01:44:50;99355.16;;;5.85;60.12
64853;BME280;56050;55.558;-4.644;2024-03-02T01:47:16;99362.03;;;5.83;60.26
64853;BME280;56050;55.558;-4.644;2024-03-02T01:49:41;99360.50;;;5.82;60.21
64853;BME280;56050;55.558;-4.644;2024-03-02T01:52:07;99365.09;;;5.81;60.30
64853;BME280;56050;55.558;-4.644;2024-03-02T01:54:32;99352.88;;;5.80;60.18
64853;BME280;56050;55.558;-4.644;2024-03-02T01:56:58;99360.53;;;5.78;60.23
64853;BME280;56050;55.558;-4.644;2024-03-02T01:59:24;99359.38;;;5.76;60.17
64853;BME280;56050;55.558;-4.644;2024-03-02T02:01:49;99351.00;;;5.74;60.30
64853;BME280;56050;55.558;-4.644;2024-03-02T02:04:15;99359.75;;;5.74;60.26
64853;BME280;56050;55.558;-4.644;2024-03-02T02:06:40;99349.84;;;5.75;60.24
64853;BME280;56050;55.558;-4.644;2024-03-02T02:09:06;99352.50;;;5.75;60.42
64853;BME280;56050;55.558;-4.644;2024-03-02T02:11:34;99352.13;;;5.76;60.51
64853;BME280;56050;55.558;-4.644;2024-03-02T02:13:59;99355.19;;;5.78;60.36
64853;BME280;56050;55.558;-4.644;2024-03-02T02:16:25;99358.22;;;5.80;60.45
64853;BME280;56050;55.558;-4.644;2024-03-02T02:18:50;99356.72;;;5.79;60.15
64853;BME280;56050;55.558;-4.644;2024-03-02T02:21:16;99357.06;;;5.81;60.43
64853;BME280;56050;55.558;-4.644;2024-03-02T02:23:41;99352.88;;;5.84;60.24
64853;BME280;56050;55.558;-4.644;2024-03-02T02:26:11;99355.16;;;5.85;60.39
64853;BME280;56050;55.558;-4.644;2024-03-02T02:28:37;99355.16;;;5.89;60.19
64853;BME280;56050;55.558;-4.644;2024-03-02T02:31:03;99356.69;;;5.90;60.24
64853;BME280;56050;55.558;-4.644;2024-03-02T02:33:28;99358.97;;;5.91;60.15
64853;BME280;56050;55.558;-4.644;2024-03-02T02:35:54;99355.16;;;5.93;60.00
64853;BME280;56050;55.558;-4.644;2024-03-02T02:38:19;99355.94;;;5.93;60.04
64853;BME280;56050;55.558;-4.644;2024-03-02T02:40:45;99358.97;;;5.95;60.13
64853;BME280;56050;55.558;-4.644;2024-03-02T02:43:12;99355.91;;;5.97;60.15
64853;BME280;56050;55.558;-4.644;2024-03-02T02:45:37;99352.09;;;5.98;60.19
64853;BME280;56050;55.558;-4.644;2024-03-02T02:48:03;99349.41;;;5.98;59.89
64853;BME280;56050;55.558;-4.644;2024-03-02T02:50:28;99347.50;;;5.98;60.04
64853;BME280;56050;55.558;-4.644;2024-03-02T02:52:54;99343.69;;;5.99;59.99
64853;BME280;56050;55.558;-4.644;2024-03-02T02:55:19;99346.72;;;6.01;60.00
64853;BME280;56050;55.558;-4.644;2024-03-02T02:57:45;99338.72;;;6.01;60.04
64853;BME280;56050;55.558;-4.644;2024-03-02T03:00:15;99341.38;;;6.01;59.94
64853;BME280;56050;55.558;-4.644;2024-03-02T03:02:46;99342.53;;;6.00;59.61
64853;BME280;56050;55.558;-4.644;2024-03-02T03:05:13;99342.91;;;5.99;59.70
64853;BME280;56050;55.558;-4.644;2024-03-02T03:07:40;99347.50;;;5.95;59.60
64853;BME280;56050;55.558;-4.644;2024-03-02T03:10:07;99341.03;;;5.92;59.73
64853;BME280;56050;55.558;-4.644;2024-03-02T03:12:33;99339.13;;;5.89;59.51
64853;BME280;56050;55.558;-4.644;2024-03-02T03:14:59;99334.19;;;5.87;59.77
64853;BME280;56050;55.558;-4.644;2024-03-02T03:17:25;99336.09;;;5.87;59.69
64853;BME280;56050;55.558;-4.644;2024-03-02T03:19:51;99340.28;;;5.88;59.71
64853;BME280;56050;55.558;-4.644;2024-03-02T03:22:17;99341.44;;;5.87;59.64
64853;BME280;56050;55.558;-4.644;2024-03-02T03:24:42;99333.03;;;5.88;59.87
64853;BME280;56050;55.558;-4.644;2024-03-02T03:27:08;99336.81;;;5.91;59.62
64853;BME280;56050;55.558;-4.644;2024-03-02T03:29:35;99338.00;;;5.94;59.65
64853;BME280;56050;55.558;-4.644;2024-03-02T03:32:01;99333.78;;;5.96;59.57
64853;BME280;56050;55.558;-4.644;2024-03-02T03:34:26;99334.13;;;5.98;59.53
64853;BME280;56050;55.558;-4.644;2024-03-02T03:36:54;99333.72;;;6.03;59.40
64853;BME280;56050;55.558;-4.644;2024-03-02T03:39:19;99326.06;;;6.05;59.46
64853;BME280;56050;55.558;-4.644;2024-03-02T03:41:44;99332.53;;;6.11;59.48
64853;BME280;56050;55.558;-4.644;2024-03-02T03:44:10;99326.81;;;6.13;59.39
64853;BME280;56050;55.558;-4.644;2024-03-02T03:46:35;99324.50;;;6.15;59.28
64853;BME280;56050;55.558;-4.644;2024-03-02T03:49:01;99321.84;;;6.15;59.07
64853;BME280;56050;55.558;-4.644;2024-03-02T03:51:29;99328.31;;;6.17;58.97
64853;BME280;56050;55.558;-4.644;2024-03-02T03:53:55;99318.75;;;6.16;58.96
64853;BME280;56050;55.558;-4.644;2024-03-02T03:56:21;99325.28;;;6.15;59.14
64853;BME280;56050;55.558;-4.644;2024-03-02T03:58:46;99327.94;;;6.15;59.25
64853;BME280;56050;55.558;-4.644;2024-03-02T04:01:11;99317.63;;;6.14;59.24
64853;BME280;56050;55.558;-4.644;2024-03-02T04:03:38;99322.25;;;6.10;59.18
64853;BME280;56050;55.558;-4.644;2024-03-02T04:06:03;99324.19;;;6.02;59.10
64853;BME280;56050;55.558;-4.644;2024-03-02T04:08:29;99321.16;;;5.97;59.04
64853;BME280;56050;55.558;-4.644;2024-03-02T04:10:54;99315.06;;;5.93;59.18
64853;BME280;56050;55.558;-4.644;2024-03-02T04:13:20;99316.63;;;5.90;59.29
64853;BME280;56050;55.558;-4.644;2024-03-02T04:15:45;99319.66;;;5.88;59.51
64853;BME280;56050;55.558;-4.644;2024-03-02T04:18:10;99310.13;;;5.87;59.59
64853;BME280;56050;55.558;-4.644;2024-03-02T04:20:36;99325.41;;;5.90;59.69
64853;BME280;56050;55.558;-4.644;2024-03-02T04:23:02;99314.31;;;5.88;59.66
64853;BME280;56050;55.558;-4.644;2024-03-02T04:25:27;99316.22;;;5.91;59.82
64853;BME280;56050;55.558;-4.644;2024-03-02T04:27:53;99313.16;;;5.93;59.81
64853;BME280;56050;55.558;-4.644;2024-03-02T04:30:18;99307.06;;;5.93;59.78
64853;BME280;56050;55.558;-4.644;2024-03-02T04:32:44;99313.94;;;5.94;60.14
64853;BME280;56050;55.558;-4.644;2024-03-02T04:35:12;99314.66;;;5.94;60.25
64853;BME280;56050;55.558;-4.644;2024-03-02T04:37:38;99313.16;;;5.93;60.15
64853;BME280;56050;55.558;-4.644;2024-03-02T04:40:04;99313.53;;;5.95;60.15
64853;BME280;56050;55.558;-4.644;2024-03-02T04:42:33;99316.22;;;5.91;60.14
64853;BME280;56050;55.558;-4.644;2024-03-02T04:44:58;99314.72;;;5.90;60.21
64853;BME280;56050;55.558;-4.644;2024-03-02T04:47:24;99321.56;;;5.91;60.24
64853;BME280;56050;55.558;-4.644;2024-03-02T04:49:49;99325.38;;;5.94;60.18
64853;BME280;56050;55.558;-4.644;2024-03-02T04:52:15;99315.44;;;5.95;60.28
64853;BME280;56050;55.558;-4.644;2024-03-02T04:54:41;99310.47;;;5.97;60.29
64853;BME280;56050;55.558;-4.644;2024-03-02T04:57:25;99314.28;;;5.99;60.13
64853;BME280;56050;55.558;-4.644;2024-03-02T04:59:50;99309.31;;;6.01;60.18
64853;BME280;56050;55.558;-4.644;2024-03-02T05:02:16;99300.88;;;6.03;60.16
64853;BME280;56050;55.558;-4.644;2024-03-02T05:04:41;99308.53;;;6.04;60.14
64853;BME280;56050;55.558;-4.644;2024-03-02T05:07:07;99305.09;;;6.07;60.17
64853;BME280;56050;55.558;-4.644;2024-03-02T05:09:32;99305.81;;;6.08;60.09
64853;BME280;56050;55.558;-4.644;2024-03-02T05:11:58;99313.84;;;6.08;60.17
64853;BME280;56050;55.558;-4.644;2024-03-02T05:14:41;99305.47;;;6.06;59.86
64853;BME280;56050;55.558;-4.644;2024-03-02T05:17:07;99302.41;;;6.04;59.89
64853;BME280;56050;55.558;-4.644;2024-03-02T05:19:32;99305.09;;;6.00;60.17
64853;BME280;56050;55.558;-4.644;2024-03-02T05:21:58;99309.69;;;6.00;59.95
64853;BME280;56050;55.558;-4.644;2024-03-02T05:24:23;99308.53;;;6.01;60.00
64853;BME280;56050;55.558;-4.644;2024-03-02T05:26:49;99313.47;;;6.02;60.10
64853;BME280;56050;55.558;-4.644;2024-03-02T05:29:14;99310.44;;;6.04;59.84
64853;BME280;56050;55.558;-4.644;2024-03-02T05:31:40;99309.31;;;6.05;60.04
64853;BME280;56050;55.558;-4.644;2024-03-02T05:34:05;99313.09;;;6.07;59.86
64853;BME280;56050;55.558;-4.644;2024-03-02T05:36:31;99308.50;;;6.08;59.92
64853;BME280;56050;55.558;-4.644;2024-03-02T05:38:57;99315.38;;;6.12;60.02
64853;BME280;56050;55.558;-4.644;2024-03-02T05:41:22;99310.38;;;6.11;59.83
64853;BME280;56050;55.558;-4.644;2024-03-02T05:43:48;99307.72;;;6.11;59.89
64853;BME280;56050;55.558;-4.644;2024-03-02T05:46:13;99308.88;;;6.10;59.81
64853;BME280;56050;55.558;-4.644;2024-03-02T05:48:38;99306.97;;;6.10;59.99
64853;BME280;56050;55.558;-4.644;2024-03-02T05:51:04;99305.44;;;6.13;59.90
64853;BME280;56050;55.558;-4.644;2024-03-02T05:53:29;99306.22;;;6.10;59.89
64853;BME280;56050;55.558;-4.644;2024-03-02T05:55:55;99304.69;;;6.05;60.13
64853;BME280;56050;55.558;-4.644;2024-03-02T05:58:22;99303.19;;;6.04;60.11
64853;BME280;56050;55.558;-4.644;2024-03-02T06:01:14;99301.28;;;6.05;60.26
64853;BME280;56050;55.558;-4.644;2024-03-02T06:03:40;99308.50;;;6.08;60.19
64853;BME280;56050;55.558;-4.644;2024-03-02T06:06:06;99297.06;;;6.07;60.25
64853;BME280;56050;55.558;-4.644;2024-03-02T06:08:31;99298.97;;;6.07;60.30
64853;BME280;56050;55.558;-4.644;2024-03-02T06:10:57;99306.63;;;6.05;60.34
64853;BME280;56050;55.558;-4.644;2024-03-02T06:13:22;99309.31;;;6.05;60.48
64853;BME280;56050;55.558;-4.644;2024-03-02T06:15:48;99309.31;;;6.05;60.77
64853;BME280;56050;55.558;-4.644;2024-03-02T06:18:13;99305.47;;;6.02;60.93
64853;BME280;56050;55.558;-4.644;2024-03-02T06:20:39;99310.09;;;5.98;60.92
64853;BME280;56050;55.558;-4.644;2024-03-02T06:23:04;99295.97;;;5.94;61.26
64853;BME280;56050;55.558;-4.644;2024-03-02T06:25:30;99306.66;;;5.94;61.60
64853;BME280;56050;55.558;-4.644;2024-03-02T06:27:55;99307.44;;;5.91;61.53
64853;BME280;56050;55.558;-4.644;2024-03-02T06:30:21;99304.03;;;5.90;61.89
64853;BME280;56050;55.558;-4.644;2024-03-02T06:32:46;99310.50;;;5.86;61.88
64853;BME280;56050;55.558;-4.644;2024-03-02T06:35:11;99306.34;;;5.85;61.92
64853;BME280;56050;55.558;-4.644;2024-03-02T06:37:38;99307.84;;;5.86;61.82
64853;BME280;56050;55.558;-4.644;2024-03-02T06:40:07;99303.25;;;5.86;61.85
64853;BME280;56050;55.558;-4.644;2024-03-02T06:42:34;99308.22;;;5.88;61.93
64853;BME280;56050;55.558;-4.644;2024-03-02T06:44:59;99311.63;;;5.88;61.98
64853;BME280;56050;55.558;-4.644;2024-03-02T06:47:25;99312.03;;;5.90;62.06
64853;BME280;56050;55.558;-4.644;2024-03-02T06:49:51;99314.31;;;5.88;62.04
64853;BME280;56050;55.558;-4.644;2024-03-02T06:52:17;99322.72;;;5.87;61.88
64853;BME280;56050;55.558;-4.644;2024-03-02T06:54:42;99320.06;;;5.90;61.97
64853;BME280;56050;55.558;-4.644;2024-03-02T06:57:07;99314.66;;;5.94;61.92
64853;BME280;56050;55.558;-4.644;2024-03-02T06:59:33;99321.53;;;5.99;61.81
64853;BME280;56050;55.558;-4.644;2024-03-02T07:01:59;99324.56;;;6.01;61.68
64853;BME280;56050;55.558;-4.644;2024-03-02T07:04:24;99328.38;;;6.03;61.70
64853;BME280;56050;55.558;-4.644;2024-03-02T07:06:50;99332.97;;;6.03;61.67
64853;BME280;56050;55.558;-4.644;2024-03-02T07:09:16;99331.81;;;6.04;61.58
64853;BME280;56050;55.558;-4.644;2024-03-02T07:11:42;99335.25;;;6.04;61.76
64853;BME280;56050;55.558;-4.644;2024-03-02T07:14:07;99335.66;;;5.99;61.79
64853;BME280;56050;55.558;-4.644;2024-03-02T07:16:32;99333.00;;;5.96;61.88
64853;BME280;56050;55.558;-4.644;2024-03-02T07:18:59;99331.09;;;5.93;62.14
64853;BME280;56050;55.558;-4.644;2024-03-02T07:21:27;99328.44;;;5.93;62.09
64853;BME280;56050;55.558;-4.644;2024-03-02T07:23:53;99334.91;;;5.91;62.07
64853;BME280;56050;55.558;-4.644;2024-03-02T07:26:18;99342.94;;;5.95;62.32
64853;BME280;56050;55.558;-4.644;2024-03-02T07:28:47;99337.22;;;5.93;62.25
64853;BME280;56050;55.558;-4.644;2024-03-02T07:31:13;99344.47;;;5.93;62.38
64853;BME280;56050;55.558;-4.644;2024-03-02T07:33:39;99336.44;;;5.93;62.46
64853;BME280;56050;55.558;-4.644;2024-03-02T07:36:04;99339.13;;;5.93;62.53
64853;BME280;56050;55.558;-4.644;2024-03-02T07:38:30;99339.50;;;5.95;62.39
64853;BME280;56050;55.558;-4.644;2024-03-02T07:40:57;99341.38;;;5.98;62.42
64853;BME280;56050;55.558;-4.644;2024-03-02T07:43:24;99342.53;;;6.00;62.37
64853;BME280;56050;55.558;-4.644;2024-03-02T07:45:49;99344.06;;;6.01;62.34
64853;BME280;56050;55.558;-4.644;2024-03-02T07:48:16;99343.28;;;6.04;62.31
64853;BME280;56050;55.558;-4.644;2024-03-02T07:50:42;99339.06;;;6.07;62.31
64853;BME280;56050;55.558;-4.644;2024-03-02T07:53:08;99340.22;;;6.06;62.55
64853;BME280;56050;55.558;-4.644;2024-03-02T07:55:34;99340.22;;;6.06;62.64
64853;BME280;56050;55.558;-4.644;2024-03-02T07:58:00;99340.19;;;6.09;62.72
64853;BME280;56050;55.558;-4.644;2024-03-02T08:00:25;99350.88;;;6.09;62.70
64853;BME280;56050;55.558;-4.644;2024-03-02T08:02:52;99346.31;;;6.06;62.73
64853;BME280;56050;55.558;-4.644;2024-03-02T08:05:18;99356.59;;;6.08;62.73
64853;BME280;56050;55.558;-4.644;2024-03-02T08:07:44;99355.47;;;6.12;62.67
64853;BME280;56050;55.558;-4.644;2024-03-02T08:10:10;99354.28;;;6.13;62.73
64853;BME280;56050;55.558;-4.644;2024-03-02T08:12:35;99355.81;;;6.14;62.84
64853;BME280;56050;55.558;-4.644;2024-03-02T08:15:01;99357.34;;;6.15;63.07
64853;BME280;56050;55.558;-4.644;2024-03-02T08:17:26;99358.50;;;6.14;62.88
64853;BME280;56050;55.558;-4.644;2024-03-02T08:19:52;99354.28;;;6.13;63.09
64853;BME280;56050;55.558;-4.644;2024-03-02T08:22:18;99363.47;;;6.16;63.09
64853;BME280;56050;55.558;-4.644;2024-03-02T08:24:43;99357.72;;;6.21;63.01
64853;BME280;56050;55.558;-4.644;2024-03-02T08:27:09;99363.44;;;6.23;62.90
64853;BME280;56050;55.558;-4.644;2024-03-02T08:29:35;99371.41;;;6.30;62.99
64853;BME280;56050;55.558;-4.644;2024-03-02T08:32:00;99370.25;;;6.34;62.78
64853;BME280;56050;55.558;-4.644;2024-03-02T08:34:27;99377.47;;;6.41;62.83
64853;BME280;56050;55.558;-4.644;2024-03-02T08:36:53;99372.09;;;6.48;62.88
64853;BME280;56050;55.558;-4.644;2024-03-02T08:39:18;99374.72;;;6.55;62.70
64853;BME280;56050;55.558;-4.644;2024-03-02T08:41:45;99382.31;;;6.60;62.62
64853;BME280;56050;55.558;-4.644;2024-03-02T08:44:11;99384.22;;;6.63;62.70
64853;BME280;56050;55.558;-4.644;2024-03-02T08:46:37;99381.94;;;6.65;62.71
64853;BME280;56050;55.558;-4.644;2024-03-02T08:49:03;99383.44;;;6.66;62.87
64853;BME280;56050;55.558;-4.644;2024-03-02T08:51:29;99386.09;;;6.70;62.95
64853;BME280;56050;55.558;-4.644;2024-03-02T08:53:54;99392.97;;;6.71;62.89
64853;BME280;56050;55.558;-4.644;2024-03-02T08:56:20;99387.63;;;6.71;63.26
64853;BME280;56050;55.558;-4.644;2024-03-02T08:58:47;99387.97;;;6.73;63.34
64853;BME280;56050;55.558;-4.644;2024-03-02T09:01:12;99388.34;;;6.78;63.18
64853;BME280;56050;55.558;-4.644;2024-03-02T09:03:37;99384.09;;;6.81;63.08
64853;BME280;56050;55.558;-4.644;2024-03-02T09:06:03;99386.00;;;6.84;63.25
64853;BME280;56050;55.558;-4.644;2024-03-02T09:08:28;99386.75;;;6.84;63.17
64853;BME280;56050;55.558;-4.644;2024-03-02T09:10:54;99399.75;;;6.86;63.14
64853;BME280;56050;55.558;-4.644;2024-03-02T09:13:21;99389.81;;;6.83;62.94
64853;BME280;56050;55.558;-4.644;2024-03-02T09:15:47;99391.38;;;6.77;62.95
64853;BME280;56050;55.558;-4.644;2024-03-02T09:18:13;99399.06;;;6.75;62.97
64853;BME280;56050;55.558;-4.644;2024-03-02T09:20:38;99399.06;;;6.71;62.90
64853;BME280;56050;55.558;-4.644;2024-03-02T09:23:04;99398.72;;;6.66;62.92
64853;BME280;56050;55.558;-4.644;2024-03-02T09:25:29;99396.09;;;6.59;63.10
64853;BME280;56050;55.558;-4.644;2024-03-02T09:27:55;99408.75;;;6.51;63.02
64853;BME280;56050;55.558;-4.644;2024-03-02T09:30:20;99405.75;;;6.42;63.06
64853;BME280;56050;55.558;-4.644;2024-03-02T09:32:46;99407.69;;;6.34;63.12
64853;BME280;56050;55.558;-4.644;2024-03-02T09:35:11;99405.44;;;6.29;63.12
64853;BME280;56050;55.558;-4.644;2024-03-02T09:37:37;99406.22;;;6.23;63.29
64853;BME280;56050;55.558;-4.644;2024-03-02T09:40:03;99415.41;;;6.18;63.36
64853;BME280;56050;55.558;-4.644;2024-03-02T09:42:29;99399.72;;;6.17;63.42
64853;BME280;56050;55.558;-4.644;2024-03-02T09:44:55;99407.00;;;6.16;63.37
64853;BME280;56050;55.558;-4.644;2024-03-02T09:47:20;99413.50;;;6.15;63.49
64853;BME280;56050;55.558;-4.644;2024-03-02T09:49:46;99409.31;;;6.14;63.44
64853;BME280;56050;55.558;-4.644;2024-03-02T09:52:12;99414.28;;;6.16;63.46
64853;BME280;56050;55.558;-4.644;2024-03-02T09:54:39;99411.97;;;6.18;63.33
64853;BME280;56050;55.558;-4.644;2024-03-02T09:57:05;99418.81;;;6.19;63.43
64853;BME280;56050;55.558;-4.644;2024-03-02T09:59:30;99416.91;;;6.23;63.50
64853;BME280;56050;55.558;-4.644;2024-03-02T10:02:03;99411.56;;;6.26;63.53
64853;BME280;56050;55.558;-4.644;2024-03-02T10:04:29;99415.31;;;6.36;63.54
64853;BME280;56050;55.558;-4.644;2024-03-02T10:09:36;99419.47;;;6.51;63.20
64853;BME280;56050;55.558;-4.644;2024-03-02T10:12:04;99407.16;;;6.61;63.30
64853;BME280;56050;55.558;-4.644;2024-03-02T10:14:30;99411.31;;;6.69;63.13
64853;BME280;56050;55.558;-4.644;2024-03-02T10:17:01;99418.56;;;6.75;63.17
64853;BME280;56050;55.558;-4.644;2024-03-02T10:19:27;99417.34;;;6.83;63.11
64853;BME280;56050;55.558;-4.644;2024-03-02T10:21:57;99421.13;;;6.89;63.04
64853;BME280;56050;55.558;-4.644;2024-03-02T10:24:23;99418.81;;;6.95;62.92
64853;BME280;56050;55.558;-4.644;2024-03-02T10:26:49;99423.75;;;7.00;62.79
64853;BME280;56050;55.558;-4.644;2024-03-02T10:29:15;99428.69;;;7.05;62.61
64853;BME280;56050;55.558;-4.644;2024-03-02T10:31:41;99431.69;;;7.10;62.71
64853;BME280;56050;55.558;-4.644;2024-03-02T10:34:10;99426.69;;;7.13;62.72
64853;BME280;56050;55.558;-4.644;2024-03-02T10:36:36;99422.50;;;7.15;62.75
64853;BME280;56050;55.558;-4.644;2024-03-02T10:39:05;99427.03;;;7.18;62.70
64853;BME280;56050;55.558;-4.644;2024-03-02T10:41:34;99418.59;;;7.23;62.76
64853;BME280;56050;55.558;-4.644;2024-03-02T10:44:07;99410.91;;;7.29;62.66
64853;BME280;56050;55.558;-4.644;2024-03-02T10:46:37;99417.72;;;7.37;62.64
64853;BME280;56050;55.558;-4.644;2024-03-02T10:49:04;99409.97;;;7.46;62.63
64853;BME280;56050;55.558;-4.644;2024-03-02T10:51:32;99416.03;;;7.53;62.68
64853;BME280;56050;55.558;-4.644;2024-03-02T10:53:59;99415.59;;;7.62;62.54
64853;BME280;56050;55.558;-4.644;2024-03-02T10:59:28;99414.25;;;7.81;62.54
64853;BME280;56050;55.558;-4.644;2024-03-02T11:01:59;99405.72;;;7.89;62.49
64853;BME280;56050;55.558;-4.644;2024-03-02T11:04:26;99403.31;;;7.98;62.43
64853;BME280;56050;55.558;-4.644;2024-03-02T11:06:54;99404.41;;;8.04;62.18
64853;BME280;56050;55.558;-4.644;2024-03-02T11:09:22;99405.84;;;8.12;62.43
64853;BME280;56050;55.558;-4.644;2024-03-02T11:12:00;99402.28;;;8.22;62.29
64853;BME280;56050;55.558;-4.644;2024-03-02T11:14:30;99404.91;;;8.30;62.17
64853;BME280;56050;55.558;-4.644;2024-03-02T11:16:57;99406.31;;;8.38;61.87
64853;BME280;56050;55.558;-4.644;2024-03-02T11:19:23;99408.97;;;8.41;61.93
64853;BME280;56050;55.558;-4.644;2024-03-02T11:21:50;99401.63;;;8.45;61.80
64853;BME280;56050;55.558;-4.644;2024-03-02T11:26:52;99404.13;;;8.59;61.71
64853;BME280;56050;55.558;-4.644;2024-03-02T11:32:02;99414.31;;;8.71;61.38
64853;BME280;56050;55.558;-4.644;2024-03-02T11:34:33;99413.91;;;8.73;61.24
64853;BME280;56050;55.558;-4.644;2024-03-02T11:36:59;99417.31;;;8.77;61.05
64853;BME280;56050;55.558;-4.644;2024-03-02T11:39:26;99413.81;;;8.80;61.15
64853;BME280;56050;55.558;-4.644;2024-03-02T11:41:52;99406.09;;;8.82;61.12
64853;BME280;56050;55.558;-4.644;2024-03-02T11:44:18;99414.88;;;8.86;60.92
64853;BME280;56050;55.558;-4.644;2024-03-02T11:47:05;99422.13;;;8.89;60.53
64853;BME280;56050;55.558;-4.644;2024-03-02T11:49:45;99412.88;;;8.90;60.55
64853;BME280;56050;55.558;-4.644;2024-03-02T11:52:13;99414.41;;;8.91;60.54
64853;BME280;56050;55.558;-4.644;2024-03-02T11:54:42;99417.88;;;8.92;60.56
64853;BME280;56050;55.558;-4.644;2024-03-02T11:57:18;99409.72;;;8.95;60.66
64853;BME280;56050;55.558;-4.644;2024-03-02T11:59:56;99418.84;;;9.01;60.66
64853;BME280;56050;55.558;-4.644;2024-03-02T12:02:23;99417.28;;;9.04;60.49
64853;BME280;56050;55.558;-4.644;2024-03-02T12:04:49;99422.94;;;9.09;60.39
64853;BME280;56050;55.558;-4.644;2024-03-02T12:07:19;99421.78;;;9.10;60.07
64853;BME280;56050;55.558;-4.644;2024-03-02T12:09:46;99416.38;;;9.14;60.13
64853;BME280;56050;55.558;-4.644;2024-03-02T12:12:11;99422.78;;;9.20;60.10
64853;BME280;56050;55.558;-4.644;2024-03-02T12:14:39;99426.94;;;9.24;60.06
64853;BME280;56050;55.558;-4.644;2024-03-02T12:17:05;99421.91;;;9.26;60.08
64853;BME280;56050;55.558;-4.644;2024-03-02T12:19:32;99420.34;;;9.29;59.73
64853;BME280;56050;55.558;-4.644;2024-03-02T12:21:59;99424.47;;;9.33;59.67
64853;BME280;56050;55.558;-4.644;2024-03-02T12:24:27;99430.56;;;9.37;59.50
64853;BME280;56050;55.558;-4.644;2024-03-02T12:26:53;99428.22;;;9.39;59.63
64853;BME280;56050;55.558;-4.644;2024-03-02T12:29:19;99424.72;;;9.42;59.40
64853;BME280;56050;55.558;-4.644;2024-03-02T12:31:48;99427.75;;;9.44;59.25
64853;BME280;56050;55.558;-4.644;2024-03-02T12:34:15;99425.78;;;9.49;59.03
64853;BME280;56050;55.558;-4.644;2024-03-02T12:36:41;99422.28;;;9.52;58.83
64853;BME280;56050;55.558;-4.644;2024-03-02T12:39:10;99424.97;;;9.52;58.81
64853;BME280;56050;55.558;-4.644;2024-03-02T12:41:39;99417.25;;;9.54;58.80
64853;BME280;56050;55.558;-4.644;2024-03-02T12:44:07;99411.03;;;9.57;58.58
64853;BME280;56050;55.558;-4.644;2024-03-02T12:46:33;99412.56;;;9.58;58.46
64853;BME280;56050;55.558;-4.644;2024-03-02T12:49:07;99404.56;;;9.54;58.45
64853;BME280;56050;55.558;-4.644;2024-03-02T12:51:32;99402.97;;;9.57;58.60
64853;BME280;56050;55.558;-4.644;2024-03-02T12:53:58;99402.59;;;9.58;58.63
64853;BME280;56050;55.558;-4.644;2024-03-02T12:56:24;99401.72;;;9.61;58.51
64853;BME280;56050;55.558;-4.644;2024-03-02T12:58:54;99399.00;;;9.65;58.61
64853;BME280;56050;55.558;-4.644;2024-03-02T13:01:20;99400.47;;;9.69;58.41
64853;BME280;56050;55.558;-4.644;2024-03-02T13:03:48;99399.16;;;9.77;58.42
64853;BME280;56050;55.558;-4.644;2024-03-02T13:06:16;99398.25;;;9.84;58.16
64853;BME280;56050;55.558;-4.644;2024-03-02T13:08:42;99404.34;;;9.88;58.09
64853;BME280;56050;55.558;-4.644;2024-03-02T13:11:07;99399.63;;;9.92;57.95